sensor_id;sensor_type;location;lat;lon;timestamp;temperature;humidity
10812;DHT22;5458;51.496;7.334;2023-02-22T00:00:14;9.50;99.90
10812;DHT22;5458;51.496;7.334;2023-02-22T00:02:48;9.50;99.90
10812;DHT22;5458;51.496;7.334;2023-02-22T00:05:16;9.50;99.90
10812;DHT22;5458;51.496;7.334;2023-02-22T00:07:45;9.40;99.90
10812;DHT22;5458;51.496;7.334;2023-02-22T00:10:13;9.40;99.90
10812;DHT22;5458;51.496;7.334;2023-02-22T00:12:42;9.40;99.90
10812;DHT22;5458;51.496;7.334;2023-02-22T00:15:08;9.40;99.90
10812;DHT22;5458;51.496;7.334;2023-02-22T00:17:35;9.40;99.90
10812;DHT22;5458;51.496;7.334;2023-02-22T00:20:01;9.40;99.90
10812;DHT22;5458;51.496;7.334;2023-02-22T00:22:26;9.40;99.90
10812;DHT22;5458;51.496;7.334;2023-02-22T00:24:52;9.40;99.90
10812;DHT22;5458;51.496;7.334;2023-02-22T00:27:17;9.40;99.90
10812;DHT22;5458;51.496;7.334;2023-02-22T00:29:44;9.40;99.90
10812;DHT22;5458;51.496;7.334;2023-02-22T00:32:10;9.30;99.90
10812;DHT22;5458;51.496;7.334;2023-02-22T00:34:36;9.30;99.90
10812;DHT22;5458;51.496;7.334;2023-02-22T00:37:01;9.40;99.90
10812;DHT22;5458;51.496;7.334;2023-02-22T00:39:31;9.40;99.90
10812;DHT22;5458;51.496;7.334;2023-02-22T00:41:57;9.40;99.90
10812;DHT22;5458;51.496;7.334;2023-02-22T00:44:23;9.40;99.90
10812;DHT22;5458;51.496;7.334;2023-02-22T00:46:48;9.40;99.90
10812;DHT22;5458;51.496;7.334;2023-02-22T00:49:15;9.40;99.90
10812;DHT22;5458;51.496;7.334;2023-02-22T00:51:41;9.40;99.90
10812;DHT22;5458;51.496;7.334;2023-02-22T00:54:07;9.40;99.90
10812;DHT22;5458;51.496;7.334;2023-02-22T00:56:33;9.40;99.90
10812;DHT22;5458;51.496;7.334;2023-02-22T00:58:59;9.40;99.90
10812;DHT22;5458;51.496;7.334;2023-02-22T01:01:26;9.40;99.90
10812;DHT22;5458;51.496;7.334;2023-02-22T01:03:52;9.40;99.90
10812;DHT22;5458;51.496;7.334;2023-02-22T01:06:18;9.30;99.90
10812;DHT22;5458;51.496;7.334;2023-02-22T01:08:45;9.30;99.90
10812;DHT22;5458;51.496;7.334;2023-02-22T01:11:11;9.30;99.90
10812;DHT22;5458;51.496;7.334;2023-02-22T01:13:37;9.30;99.90
10812;DHT22;5458;51.496;7.334;2023-02-22T01:16:03;9.30;99.90
10812;DHT22;5458;51.496;7.334;2023-02-22T01:18:29;9.30;99.90
10812;DHT22;5458;51.496;7.334;2023-02-22T01:20:54;9.30;99.90
10812;DHT22;5458;51.496;7.334;2023-02-22T01:23:20;9.30;99.90
10812;DHT22;5458;51.496;7.334;2023-02-22T01:25:46;9.20;99.90
10812;DHT22;5458;51.496;7.334;2023-02-22T01:28:11;9.20;99.90
10812;DHT22;5458;51.496;7.334;2023-02-22T01:30:38;9.10;99.90
10812;DHT22;5458;51.496;7.334;2023-02-22T01:33:05;9.00;99.90
10812;DHT22;5458;51.496;7.334;2023-02-22T01:35:34;9.10;99.90
10812;DHT22;5458;51.496;7.334;2023-02-22T01:38:00;9.10;99.90
10812;DHT22;5458;51.496;7.334;2023-02-22T01:40:29;9.10;99.90
10812;DHT22;5458;51.496;7.334;2023-02-22T01:42:58;9.10;99.90
10812;DHT22;5458;51.496;7.334;2023-02-22T01:47:58;9.10;99.90
10812;DHT22;5458;51.496;7.334;2023-02-22T01:50:25;9.00;99.90
10812;DHT22;5458;51.496;7.334;2023-02-22T01:52:51;9.00;99.90
10812;DHT22;5458;51.496;7.334;2023-02-22T01:55:17;9.00;99.90
10812;DHT22;5458;51.496;7.334;2023-02-22T01:57:43;9.00;99.90
10812;DHT22;5458;51.496;7.334;2023-02-22T02:00:12;9.00;99.90
10812;DHT22;5458;51.496;7.334;2023-02-22T02:02:43;8.90;99.90
10812;DHT22;5458;51.496;7.334;2023-02-22T02:05:10;8.90;99.90
10812;DHT22;5458;51.496;7.334;2023-02-22T02:07:36;8.90;99.90
10812;DHT22;5458;51.496;7.334;2023-02-22T02:10:13;8.80;99.90
10812;DHT22;5458;51.496;7.334;2023-02-22T02:12:44;8.70;99.90
10812;DHT22;5458;51.496;7.334;2023-02-22T02:15:23;8.70;99.90
10812;DHT22;5458;51.496;7.334;2023-02-22T02:17:52;8.70;99.90
10812;DHT22;5458;51.496;7.334;2023-02-22T02:24:03;8.80;99.90
10812;DHT22;5458;51.496;7.334;2023-02-22T02:35:20;8.80;99.90
10812;DHT22;5458;51.496;7.334;2023-02-22T02:38:01;8.80;99.90
10812;DHT22;5458;51.496;7.334;2023-02-22T02:40:39;8.70;99.90
10812;DHT22;5458;51.496;7.334;2023-02-22T02:43:16;8.70;99.90
10812;DHT22;5458;51.496;7.334;2023-02-22T02:45:54;8.60;99.90
10812;DHT22;5458;51.496;7.334;2023-02-22T02:48:26;8.60;99.90
10812;DHT22;5458;51.496;7.334;2023-02-22T02:50:55;8.60;99.90
10812;DHT22;5458;51.496;7.334;2023-02-22T02:53:26;8.70;99.90
10812;DHT22;5458;51.496;7.334;2023-02-22T02:55:53;8.70;99.90
10812;DHT22;5458;51.496;7.334;2023-02-22T02:58:20;8.80;99.90
10812;DHT22;5458;51.496;7.334;2023-02-22T03:00:48;8.70;99.90
10812;DHT22;5458;51.496;7.334;2023-02-22T03:11:54;8.60;99.90
10812;DHT22;5458;51.496;7.334;2023-02-22T03:14:54;8.60;99.90
10812;DHT22;5458;51.496;7.334;2023-02-22T03:17:55;8.60;99.90
10812;DHT22;5458;51.496;7.334;2023-02-22T03:23:23;8.50;99.90
10812;DHT22;5458;51.496;7.334;2023-02-22T03:25:54;8.40;99.90
10812;DHT22;5458;51.496;7.334;2023-02-22T03:28:25;8.40;99.90
10812;DHT22;5458;51.496;7.334;2023-02-22T03:31:14;8.40;99.90
10812;DHT22;5458;51.496;7.334;2023-02-22T03:36:13;8.20;99.90
10812;DHT22;5458;51.496;7.334;2023-02-22T03:38:42;8.20;99.90
10812;DHT22;5458;51.496;7.334;2023-02-22T03:41:09;8.30;99.90
10812;DHT22;5458;51.496;7.334;2023-02-22T03:43:42;8.20;99.90
10812;DHT22;5458;51.496;7.334;2023-02-22T03:46:12;8.20;99.90
10812;DHT22;5458;51.496;7.334;2023-02-22T03:49:10;8.20;99.90
10812;DHT22;5458;51.496;7.334;2023-02-22T03:51:37;8.20;99.90
10812;DHT22;5458;51.496;7.334;2023-02-22T03:54:05;8.30;99.90
10812;DHT22;5458;51.496;7.334;2023-02-22T03:56:36;8.30;99.90
10812;DHT22;5458;51.496;7.334;2023-02-22T03:59:04;8.30;99.90
10812;DHT22;5458;51.496;7.334;2023-02-22T04:01:30;8.20;99.90
10812;DHT22;5458;51.496;7.334;2023-02-22T04:03:56;8.10;99.90
10812;DHT22;5458;51.496;7.334;2023-02-22T04:06:21;8.10;99.90
10812;DHT22;5458;51.496;7.334;2023-02-22T04:08:47;8.10;99.90
10812;DHT22;5458;51.496;7.334;2023-02-22T04:11:12;8.00;99.90
10812;DHT22;5458;51.496;7.334;2023-02-22T04:13:38;7.90;99.90
10812;DHT22;5458;51.496;7.334;2023-02-22T04:16:04;7.90;99.90
10812;DHT22;5458;51.496;7.334;2023-02-22T04:18:29;7.90;99.90
10812;DHT22;5458;51.496;7.334;2023-02-22T04:20:55;7.80;99.90
10812;DHT22;5458;51.496;7.334;2023-02-22T04:23:20;7.80;99.90
10812;DHT22;5458;51.496;7.334;2023-02-22T04:25:46;7.80;99.90
10812;DHT22;5458;51.496;7.334;2023-02-22T04:28:12;7.90;99.90
10812;DHT22;5458;51.496;7.334;2023-02-22T04:30:37;7.90;99.90
10812;DHT22;5458;51.496;7.334;2023-02-22T04:33:03;7.90;99.90
10812;DHT22;5458;51.496;7.334;2023-02-22T04:35:28;8.00;99.90
10812;DHT22;5458;51.496;7.334;2023-02-22T04:37:54;7.90;99.90
10812;DHT22;5458;51.496;7.334;2023-02-22T04:40:20;7.90;99.90
10812;DHT22;5458;51.496;7.334;2023-02-22T04:42:45;7.90;99.90
10812;DHT22;5458;51.496;7.334;2023-02-22T04:45:11;7.80;99.90
10812;DHT22;5458;51.496;7.334;2023-02-22T04:47:37;7.70;99.90
10812;DHT22;5458;51.496;7.334;2023-02-22T04:50:04;7.60;99.90
10812;DHT22;5458;51.496;7.334;2023-02-22T04:52:30;7.70;99.90
10812;DHT22;5458;51.496;7.334;2023-02-22T04:54:55;7.70;99.90
10812;DHT22;5458;51.496;7.334;2023-02-22T04:57:21;7.80;99.90
10812;DHT22;5458;51.496;7.334;2023-02-22T04:59:47;7.80;99.90
10812;DHT22;5458;51.496;7.334;2023-02-22T05:02:12;7.80;99.90
10812;DHT22;5458;51.496;7.334;2023-02-22T05:04:38;7.80;99.90
10812;DHT22;5458;51.496;7.334;2023-02-22T05:07:04;7.90;99.90
10812;DHT22;5458;51.496;7.334;2023-02-22T05:09:29;7.90;99.90
10812;DHT22;5458;51.496;7.334;2023-02-22T05:11:55;7.90;99.90
10812;DHT22;5458;51.496;7.334;2023-02-22T05:14:21;7.80;99.90
10812;DHT22;5458;51.496;7.334;2023-02-22T05:16:50;7.80;99.90
10812;DHT22;5458;51.496;7.334;2023-02-22T05:19:15;7.80;99.90
10812;DHT22;5458;51.496;7.334;2023-02-22T05:21:41;7.80;99.90
10812;DHT22;5458;51.496;7.334;2023-02-22T05:24:06;7.80;99.90
10812;DHT22;5458;51.496;7.334;2023-02-22T05:26:32;7.80;99.90
10812;DHT22;5458;51.496;7.334;2023-02-22T05:28:58;7.80;99.90
10812;DHT22;5458;51.496;7.334;2023-02-22T05:31:23;7.80;99.90
10812;DHT22;5458;51.496;7.334;2023-02-22T05:33:49;7.80;99.90
10812;DHT22;5458;51.496;7.334;2023-02-22T05:36:14;7.80;99.90
10812;DHT22;5458;51.496;7.334;2023-02-22T05:38:41;7.80;99.90
10812;DHT22;5458;51.496;7.334;2023-02-22T05:41:09;7.80;99.90
10812;DHT22;5458;51.496;7.334;2023-02-22T05:43:36;7.80;99.90
10812;DHT22;5458;51.496;7.334;2023-02-22T05:46:02;7.70;99.90
10812;DHT22;5458;51.496;7.334;2023-02-22T05:48:27;7.70;99.90
10812;DHT22;5458;51.496;7.334;2023-02-22T05:50:53;7.70;99.90
10812;DHT22;5458;51.496;7.334;2023-02-22T05:53:19;7.80;99.90
10812;DHT22;5458;51.496;7.334;2023-02-22T05:55:44;7.70;99.90
10812;DHT22;5458;51.496;7.334;2023-02-22T05:58:10;7.70;99.90
10812;DHT22;5458;51.496;7.334;2023-02-22T06:00:35;7.70;99.90
10812;DHT22;5458;51.496;7.334;2023-02-22T06:03:04;7.60;99.90
10812;DHT22;5458;51.496;7.334;2023-02-22T06:05:30;7.60;99.90
10812;DHT22;5458;51.496;7.334;2023-02-22T06:07:57;7.60;99.90
10812;DHT22;5458;51.496;7.334;2023-02-22T06:10:23;7.60;99.90
10812;DHT22;5458;51.496;7.334;2023-02-22T06:12:49;7.60;99.90
10812;DHT22;5458;51.496;7.334;2023-02-22T06:15:16;7.50;99.90
10812;DHT22;5458;51.496;7.334;2023-02-22T06:17:41;7.40;99.90
10812;DHT22;5458;51.496;7.334;2023-02-22T06:20:12;7.40;99.90
10812;DHT22;5458;51.496;7.334;2023-02-22T06:22:38;7.40;99.90
10812;DHT22;5458;51.496;7.334;2023-02-22T06:25:08;7.20;99.90
10812;DHT22;5458;51.496;7.334;2023-02-22T06:27:34;7.30;99.90
10812;DHT22;5458;51.496;7.334;2023-02-22T06:30:00;7.30;99.90
10812;DHT22;5458;51.496;7.334;2023-02-22T06:32:26;7.10;99.90
10812;DHT22;5458;51.496;7.334;2023-02-22T06:34:52;7.10;99.90
10812;DHT22;5458;51.496;7.334;2023-02-22T06:37:17;7.10;99.90
10812;DHT22;5458;51.496;7.334;2023-02-22T06:39:43;7.10;99.90
10812;DHT22;5458;51.496;7.334;2023-02-22T06:42:08;7.00;99.90
10812;DHT22;5458;51.496;7.334;2023-02-22T06:44:34;7.00;99.90
10812;DHT22;5458;51.496;7.334;2023-02-22T06:47:00;7.00;99.90
10812;DHT22;5458;51.496;7.334;2023-02-22T06:49:26;7.00;99.90
10812;DHT22;5458;51.496;7.334;2023-02-22T06:51:53;7.10;99.90
10812;DHT22;5458;51.496;7.334;2023-02-22T06:54:18;7.10;99.90
10812;DHT22;5458;51.496;7.334;2023-02-22T06:56:44;7.20;99.90
10812;DHT22;5458;51.496;7.334;2023-02-22T06:59:10;7.10;99.90
10812;DHT22;5458;51.496;7.334;2023-02-22T07:01:35;7.00;99.90
10812;DHT22;5458;51.496;7.334;2023-02-22T07:04:01;7.00;99.90
10812;DHT22;5458;51.496;7.334;2023-02-22T07:06:27;7.00;99.90
10812;DHT22;5458;51.496;7.334;2023-02-22T07:08:53;7.00;99.90
10812;DHT22;5458;51.496;7.334;2023-02-22T07:11:19;7.00;99.90
10812;DHT22;5458;51.496;7.334;2023-02-22T07:13:44;7.00;99.90
10812;DHT22;5458;51.496;7.334;2023-02-22T07:16:10;7.00;99.90
10812;DHT22;5458;51.496;7.334;2023-02-22T07:18:36;7.00;99.90
10812;DHT22;5458;51.496;7.334;2023-02-22T07:21:03;7.00;99.90
10812;DHT22;5458;51.496;7.334;2023-02-22T07:23:28;7.10;99.90
10812;DHT22;5458;51.496;7.334;2023-02-22T07:25:54;7.10;99.90
10812;DHT22;5458;51.496;7.334;2023-02-22T07:28:20;7.10;99.90
10812;DHT22;5458;51.496;7.334;2023-02-22T07:30:45;7.20;99.90
10812;DHT22;5458;51.496;7.334;2023-02-22T07:33:11;7.10;99.90
10812;DHT22;5458;51.496;7.334;2023-02-22T07:35:45;7.10;99.90
10812;DHT22;5458;51.496;7.334;2023-02-22T07:38:12;7.10;99.90
10812;DHT22;5458;51.496;7.334;2023-02-22T07:40:38;7.20;99.90
10812;DHT22;5458;51.496;7.334;2023-02-22T07:45:34;7.40;99.90
10812;DHT22;5458;51.496;7.334;2023-02-22T07:48:02;7.50;99.90
10812;DHT22;5458;51.496;7.334;2023-02-22T07:50:29;7.60;99.90
10812;DHT22;5458;51.496;7.334;2023-02-22T07:52:56;7.70;99.90
10812;DHT22;5458;51.496;7.334;2023-02-22T07:55:24;7.80;99.90
10812;DHT22;5458;51.496;7.334;2023-02-22T07:57:52;7.70;99.90
10812;DHT22;5458;51.496;7.334;2023-02-22T08:00:29;7.90;99.90
10812;DHT22;5458;51.496;7.334;2023-02-22T08:02:55;8.10;99.90
10812;DHT22;5458;51.496;7.334;2023-02-22T08:05:24;8.20;99.90
10812;DHT22;5458;51.496;7.334;2023-02-22T08:07:50;8.30;99.90
10812;DHT22;5458;51.496;7.334;2023-02-22T08:10:18;8.40;99.90
10812;DHT22;5458;51.496;7.334;2023-02-22T08:12:44;8.60;99.90
10812;DHT22;5458;51.496;7.334;2023-02-22T08:15:17;8.70;99.90
10812;DHT22;5458;51.496;7.334;2023-02-22T08:17:42;8.80;99.90
10812;DHT22;5458;51.496;7.334;2023-02-22T08:20:08;8.90;99.90
10812;DHT22;5458;51.496;7.334;2023-02-22T08:22:34;9.00;99.90
10812;DHT22;5458;51.496;7.334;2023-02-22T08:24:59;9.10;99.90
10812;DHT22;5458;51.496;7.334;2023-02-22T08:27:27;9.30;99.90
10812;DHT22;5458;51.496;7.334;2023-02-22T08:29:54;9.60;99.90
10812;DHT22;5458;51.496;7.334;2023-02-22T08:32:20;9.90;99.90
10812;DHT22;5458;51.496;7.334;2023-02-22T08:34:46;10.00;99.90
10812;DHT22;5458;51.496;7.334;2023-02-22T08:37:12;10.10;99.90
10812;DHT22;5458;51.496;7.334;2023-02-22T08:39:38;10.30;99.90
10812;DHT22;5458;51.496;7.334;2023-02-22T08:42:04;10.70;99.90
10812;DHT22;5458;51.496;7.334;2023-02-22T08:44:29;10.80;99.90
10812;DHT22;5458;51.496;7.334;2023-02-22T08:46:55;11.00;99.90
10812;DHT22;5458;51.496;7.334;2023-02-22T08:49:20;11.30;99.90
10812;DHT22;5458;51.496;7.334;2023-02-22T08:51:46;11.70;99.90
10812;DHT22;5458;51.496;7.334;2023-02-22T08:54:12;12.20;99.90
10812;DHT22;5458;51.496;7.334;2023-02-22T08:56:38;12.90;99.90
10812;DHT22;5458;51.496;7.334;2023-02-22T08:59:04;13.60;99.90
10812;DHT22;5458;51.496;7.334;2023-02-22T09:01:29;14.80;99.90
10812;DHT22;5458;51.496;7.334;2023-02-22T09:03:57;15.60;99.90
10812;DHT22;5458;51.496;7.334;2023-02-22T09:06:23;16.30;99.90
10812;DHT22;5458;51.496;7.334;2023-02-22T09:08:48;16.50;99.90
10812;DHT22;5458;51.496;7.334;2023-02-22T09:11:14;16.50;99.90
10812;DHT22;5458;51.496;7.334;2023-02-22T09:13:40;16.40;99.90
10812;DHT22;5458;51.496;7.334;2023-02-22T09:16:05;16.60;99.90
10812;DHT22;5458;51.496;7.334;2023-02-22T09:18:31;16.90;99.90
10812;DHT22;5458;51.496;7.334;2023-02-22T09:20:57;17.30;99.90
10812;DHT22;5458;51.496;7.334;2023-02-22T09:23:23;17.80;99.90
10812;DHT22;5458;51.496;7.334;2023-02-22T09:25:50;18.30;99.10
10812;DHT22;5458;51.496;7.334;2023-02-22T09:28:16;18.50;98.10
10812;DHT22;5458;51.496;7.334;2023-02-22T09:30:41;18.70;97.70
10812;DHT22;5458;51.496;7.334;2023-02-22T09:33:10;18.80;97.40
10812;DHT22;5458;51.496;7.334;2023-02-22T09:35:37;19.10;97.10
10812;DHT22;5458;51.496;7.334;2023-02-22T09:38:07;19.10;96.60
10812;DHT22;5458;51.496;7.334;2023-02-22T09:40:35;19.10;96.60
10812;DHT22;5458;51.496;7.334;2023-02-22T09:48:14;19.40;96.20
10812;DHT22;5458;51.496;7.334;2023-02-22T09:50:41;19.30;96.00
10812;DHT22;5458;51.496;7.334;2023-02-22T09:53:36;19.20;96.40
10812;DHT22;5458;51.496;7.334;2023-02-22T09:56:10;18.80;96.40
10812;DHT22;5458;51.496;7.334;2023-02-22T09:58:45;18.30;97.40
10812;DHT22;5458;51.496;7.334;2023-02-22T10:01:30;17.60;98.10
10812;DHT22;5458;51.496;7.334;2023-02-22T10:04:23;17.00;98.90
10812;DHT22;5458;51.496;7.334;2023-02-22T10:09:22;16.00;99.90
10812;DHT22;5458;51.496;7.334;2023-02-22T10:12:28;15.70;99.90
10812;DHT22;5458;51.496;7.334;2023-02-22T10:23:30;15.10;99.90
10812;DHT22;5458;51.496;7.334;2023-02-22T10:31:23;15.20;99.90
10812;DHT22;5458;51.496;7.334;2023-02-22T10:34:00;15.20;99.90
10812;DHT22;5458;51.496;7.334;2023-02-22T10:36:26;15.20;99.90
10812;DHT22;5458;51.496;7.334;2023-02-22T10:39:21;15.10;99.90
10812;DHT22;5458;51.496;7.334;2023-02-22T10:41:48;15.10;99.90
10812;DHT22;5458;51.496;7.334;2023-02-22T10:44:15;15.10;99.90
10812;DHT22;5458;51.496;7.334;2023-02-22T10:46:42;15.20;99.90
10812;DHT22;5458;51.496;7.334;2023-02-22T10:49:09;15.20;99.90
10812;DHT22;5458;51.496;7.334;2023-02-22T10:51:37;15.30;99.90
10812;DHT22;5458;51.496;7.334;2023-02-22T10:56:51;15.30;99.90
10812;DHT22;5458;51.496;7.334;2023-02-22T10:59:45;15.40;99.90
10812;DHT22;5458;51.496;7.334;2023-02-22T11:02:29;15.40;99.90
10812;DHT22;5458;51.496;7.334;2023-02-22T11:04:58;15.50;99.90
10812;DHT22;5458;51.496;7.334;2023-02-22T11:07:34;15.50;99.90
10812;DHT22;5458;51.496;7.334;2023-02-22T11:10:06;15.60;99.90
10812;DHT22;5458;51.496;7.334;2023-02-22T11:12:40;15.70;99.90
10812;DHT22;5458;51.496;7.334;2023-02-22T11:17:42;15.70;99.90
10812;DHT22;5458;51.496;7.334;2023-02-22T11:22:45;15.60;99.90
10812;DHT22;5458;51.496;7.334;2023-02-22T11:25:18;15.60;99.90
10812;DHT22;5458;51.496;7.334;2023-02-22T11:27:46;15.60;99.90
10812;DHT22;5458;51.496;7.334;2023-02-22T11:32:53;15.90;99.90
10812;DHT22;5458;51.496;7.334;2023-02-22T11:38:35;16.00;99.90
10812;DHT22;5458;51.496;7.334;2023-02-22T11:41:25;16.10;99.90
10812;DHT22;5458;51.496;7.334;2023-02-22T11:43:52;16.20;99.90
10812;DHT22;5458;51.496;7.334;2023-02-22T11:46:26;16.20;99.90
10812;DHT22;5458;51.496;7.334;2023-02-22T11:51:42;16.10;98.20
10812;DHT22;5458;51.496;7.334;2023-02-22T12:00:03;16.10;97.50
10812;DHT22;5458;51.496;7.334;2023-02-22T12:02:50;16.20;98.50
10812;DHT22;5458;51.496;7.334;2023-02-22T12:21:33;16.20;95.10
10812;DHT22;5458;51.496;7.334;2023-02-22T12:24:08;16.20;95.20
10812;DHT22;5458;51.496;7.334;2023-02-22T12:26:52;16.20;95.40
10812;DHT22;5458;51.496;7.334;2023-02-22T12:29:36;16.20;95.80
10812;DHT22;5458;51.496;7.334;2023-02-22T12:32:32;16.30;95.60
10812;DHT22;5458;51.496;7.334;2023-02-22T12:35:11;16.30;95.90
10812;DHT22;5458;51.496;7.334;2023-02-22T12:38:00;16.40;95.90
10812;DHT22;5458;51.496;7.334;2023-02-22T12:40:32;16.50;95.00
10812;DHT22;5458;51.496;7.334;2023-02-22T12:43:18;16.50;95.20
10812;DHT22;5458;51.496;7.334;2023-02-22T12:48:47;16.50;95.40
10812;DHT22;5458;51.496;7.334;2023-02-22T12:53:54;16.50;94.30
10812;DHT22;5458;51.496;7.334;2023-02-22T12:56:30;16.50;94.20
10812;DHT22;5458;51.496;7.334;2023-02-22T12:59:16;16.50;94.40
10812;DHT22;5458;51.496;7.334;2023-02-22T13:01:50;16.50;95.10
10812;DHT22;5458;51.496;7.334;2023-02-22T13:04:16;16.50;95.90
10812;DHT22;5458;51.496;7.334;2023-02-22T13:09:58;16.50;95.70
10812;DHT22;5458;51.496;7.334;2023-02-22T13:12:39;16.50;94.30
10812;DHT22;5458;51.496;7.334;2023-02-22T13:15:39;16.40;93.40
10812;DHT22;5458;51.496;7.334;2023-02-22T13:18:31;16.40;93.50
10812;DHT22;5458;51.496;7.334;2023-02-22T13:23:42;16.40;92.90
10812;DHT22;5458;51.496;7.334;2023-02-22T13:26:16;16.40;93.80
10812;DHT22;5458;51.496;7.334;2023-02-22T13:28:49;16.30;94.20
10812;DHT22;5458;51.496;7.334;2023-02-22T13:39:53;16.40;94.60
10812;DHT22;5458;51.496;7.334;2023-02-22T13:50:51;16.40;93.70
10812;DHT22;5458;51.496;7.334;2023-02-22T13:53:26;16.20;93.60
10812;DHT22;5458;51.496;7.334;2023-02-22T13:55:56;16.20;94.00
10812;DHT22;5458;51.496;7.334;2023-02-22T13:58:23;16.20;94.60
10812;DHT22;5458;51.496;7.334;2023-02-22T14:00:55;16.20;94.50
10812;DHT22;5458;51.496;7.334;2023-02-22T14:05:52;16.20;95.00
10812;DHT22;5458;51.496;7.334;2023-02-22T14:16:24;16.00;94.20
10812;DHT22;5458;51.496;7.334;2023-02-22T14:21:34;15.90;94.70
10812;DHT22;5458;51.496;7.334;2023-02-22T14:24:10;16.00;94.40
10812;DHT22;5458;51.496;7.334;2023-02-22T14:26:38;15.90;94.50
10812;DHT22;5458;51.496;7.334;2023-02-22T14:34:13;15.90;93.50
10812;DHT22;5458;51.496;7.334;2023-02-22T14:36:59;15.90;93.20
10812;DHT22;5458;51.496;7.334;2023-02-22T14:47:41;15.90;93.50
10812;DHT22;5458;51.496;7.334;2023-02-22T14:50:18;15.90;93.50
10812;DHT22;5458;51.496;7.334;2023-02-22T14:52:54;15.90;93.20
10812;DHT22;5458;51.496;7.334;2023-02-22T14:55:24;15.80;92.70
10812;DHT22;5458;51.496;7.334;2023-02-22T14:58:06;15.80;93.00
10812;DHT22;5458;51.496;7.334;2023-02-22T15:00:42;15.90;92.70
10812;DHT22;5458;51.496;7.334;2023-02-22T15:03:36;15.80;92.30
10812;DHT22;5458;51.496;7.334;2023-02-22T15:06:40;15.90;92.20
10812;DHT22;5458;51.496;7.334;2023-02-22T15:09:12;15.80;92.70
10812;DHT22;5458;51.496;7.334;2023-02-22T15:11:39;15.70;93.00
10812;DHT22;5458;51.496;7.334;2023-02-22T15:14:17;15.80;93.50
10812;DHT22;5458;51.496;7.334;2023-02-22T15:16:51;15.80;93.60
10812;DHT22;5458;51.496;7.334;2023-02-22T15:19:24;15.80;93.60
10812;DHT22;5458;51.496;7.334;2023-02-22T15:21:53;15.70;93.10
10812;DHT22;5458;51.496;7.334;2023-02-22T15:24:30;15.70;93.20
10812;DHT22;5458;51.496;7.334;2023-02-22T15:27:13;15.70;93.40
10812;DHT22;5458;51.496;7.334;2023-02-22T15:29:41;15.60;93.20
10812;DHT22;5458;51.496;7.334;2023-02-22T15:35:32;15.60;93.60
10812;DHT22;5458;51.496;7.334;2023-02-22T15:38:15;15.50;93.60
10812;DHT22;5458;51.496;7.334;2023-02-22T15:40:42;15.50;94.00
10812;DHT22;5458;51.496;7.334;2023-02-22T15:43:20;15.50;94.10
10812;DHT22;5458;51.496;7.334;2023-02-22T15:45:50;15.50;94.50
10812;DHT22;5458;51.496;7.334;2023-02-22T15:48:16;15.40;94.70
10812;DHT22;5458;51.496;7.334;2023-02-22T15:53:43;15.40;95.10
10812;DHT22;5458;51.496;7.334;2023-02-22T15:56:25;15.30;95.30
10812;DHT22;5458;51.496;7.334;2023-02-22T15:58:51;15.30;95.50
10812;DHT22;5458;51.496;7.334;2023-02-22T16:01:23;15.20;95.70
10812;DHT22;5458;51.496;7.334;2023-02-22T16:03:58;15.20;95.70
10812;DHT22;5458;51.496;7.334;2023-02-22T16:06:40;15.20;96.00
10812;DHT22;5458;51.496;7.334;2023-02-22T16:11:37;15.10;96.40
10812;DHT22;5458;51.496;7.334;2023-02-22T16:22:39;14.90;96.80
10812;DHT22;5458;51.496;7.334;2023-02-22T16:25:29;14.80;96.90
10812;DHT22;5458;51.496;7.334;2023-02-22T16:28:01;14.80;97.10
10812;DHT22;5458;51.496;7.334;2023-02-22T16:30:38;14.80;97.20
10812;DHT22;5458;51.496;7.334;2023-02-22T16:33:06;14.70;97.40
10812;DHT22;5458;51.496;7.334;2023-02-22T16:35:38;14.70;97.50
10812;DHT22;5458;51.496;7.334;2023-02-22T16:38:07;14.70;97.50
10812;DHT22;5458;51.496;7.334;2023-02-22T16:40:54;14.60;97.60
10812;DHT22;5458;51.496;7.334;2023-02-22T16:43:29;14.60;97.70
10812;DHT22;5458;51.496;7.334;2023-02-22T16:46:00;14.50;97.80
10812;DHT22;5458;51.496;7.334;2023-02-22T16:48:28;14.50;98.00
10812;DHT22;5458;51.496;7.334;2023-02-22T16:50:57;14.40;98.20
10812;DHT22;5458;51.496;7.334;2023-02-22T16:53:25;14.40;98.40
10812;DHT22;5458;51.496;7.334;2023-02-22T16:55:56;14.30;98.60
10812;DHT22;5458;51.496;7.334;2023-02-22T16:58:25;14.30;98.80
10812;DHT22;5458;51.496;7.334;2023-02-22T17:00:55;14.20;99.10
10812;DHT22;5458;51.496;7.334;2023-02-22T17:03:22;14.20;99.30
10812;DHT22;5458;51.496;7.334;2023-02-22T17:05:48;14.10;99.40
10812;DHT22;5458;51.496;7.334;2023-02-22T17:08:14;14.10;99.50
10812;DHT22;5458;51.496;7.334;2023-02-22T17:10:41;14.10;99.70
10812;DHT22;5458;51.496;7.334;2023-02-22T17:13:07;14.00;99.80
10812;DHT22;5458;51.496;7.334;2023-02-22T17:15:34;14.00;99.90
10812;DHT22;5458;51.496;7.334;2023-02-22T17:18:00;14.00;99.90
10812;DHT22;5458;51.496;7.334;2023-02-22T17:20:29;14.00;99.90
10812;DHT22;5458;51.496;7.334;2023-02-22T17:23:08;13.90;99.90
10812;DHT22;5458;51.496;7.334;2023-02-22T17:25:47;13.90;99.90
10812;DHT22;5458;51.496;7.334;2023-02-22T17:28:14;13.90;99.90
10812;DHT22;5458;51.496;7.334;2023-02-22T17:30:41;13.80;99.90
10812;DHT22;5458;51.496;7.334;2023-02-22T17:33:09;13.80;99.90
10812;DHT22;5458;51.496;7.334;2023-02-22T17:35:38;13.70;99.90
10812;DHT22;5458;51.496;7.334;2023-02-22T17:38:05;13.70;99.90
10812;DHT22;5458;51.496;7.334;2023-02-22T17:40:32;13.70;99.90
10812;DHT22;5458;51.496;7.334;2023-02-22T17:42:59;13.60;99.90
10812;DHT22;5458;51.496;7.334;2023-02-22T17:45:27;13.60;99.90
10812;DHT22;5458;51.496;7.334;2023-02-22T17:47:52;13.60;99.90
10812;DHT22;5458;51.496;7.334;2023-02-22T17:50:20;13.50;99.90
10812;DHT22;5458;51.496;7.334;2023-02-22T17:52:46;13.60;99.90
10812;DHT22;5458;51.496;7.334;2023-02-22T17:55:12;13.50;99.90
10812;DHT22;5458;51.496;7.334;2023-02-22T17:57:38;13.50;99.90
10812;DHT22;5458;51.496;7.334;2023-02-22T18:00:10;13.50;99.90
10812;DHT22;5458;51.496;7.334;2023-02-22T18:02:43;13.40;99.90
10812;DHT22;5458;51.496;7.334;2023-02-22T18:05:11;13.40;99.90
10812;DHT22;5458;51.496;7.334;2023-02-22T18:07:40;13.40;99.90
10812;DHT22;5458;51.496;7.334;2023-02-22T18:10:06;13.40;99.90
10812;DHT22;5458;51.496;7.334;2023-02-22T18:12:40;13.40;99.90
10812;DHT22;5458;51.496;7.334;2023-02-22T18:15:07;13.30;99.90
10812;DHT22;5458;51.496;7.334;2023-02-22T18:17:36;13.30;99.90
10812;DHT22;5458;51.496;7.334;2023-02-22T18:20:03;13.30;99.90
10812;DHT22;5458;51.496;7.334;2023-02-22T18:22:36;13.30;99.90
10812;DHT22;5458;51.496;7.334;2023-02-22T18:25:02;13.30;99.90
10812;DHT22;5458;51.496;7.334;2023-02-22T18:27:28;13.30;99.90
10812;DHT22;5458;51.496;7.334;2023-02-22T18:29:54;13.30;99.90
10812;DHT22;5458;51.496;7.334;2023-02-22T18:32:20;13.20;99.90
10812;DHT22;5458;51.496;7.334;2023-02-22T18:34:45;13.20;99.90
10812;DHT22;5458;51.496;7.334;2023-02-22T18:37:11;13.20;99.90
10812;DHT22;5458;51.496;7.334;2023-02-22T18:39:37;13.20;99.90
10812;DHT22;5458;51.496;7.334;2023-02-22T18:42:07;13.20;99.90
10812;DHT22;5458;51.496;7.334;2023-02-22T18:44:32;13.20;99.90
10812;DHT22;5458;51.496;7.334;2023-02-22T18:46:58;13.10;99.90
10812;DHT22;5458;51.496;7.334;2023-02-22T18:49:24;13.10;99.90
10812;DHT22;5458;51.496;7.334;2023-02-22T18:51:51;13.20;99.90
10812;DHT22;5458;51.496;7.334;2023-02-22T18:54:16;13.10;99.90